sensor_id;sensor_type;location;lat;lon;timestamp;P1;durP1;ratioP1;P2;durP2;ratioP2
39738;SDS011;25422;48.286;8.484;2023-05-10T00:00:26;1.75;;;0.88;;
39738;SDS011;25422;48.286;8.484;2023-05-10T00:02:52;0.77;;;0.77;;
39738;SDS011;25422;48.286;8.484;2023-05-10T00:05:18;3.30;;;0.85;;
39738;SDS011;25422;48.286;8.484;2023-05-10T00:07:43;0.70;;;0.70;;
39738;SDS011;25422;48.286;8.484;2023-05-10T00:10:10;0.95;;;0.73;;
39738;SDS011;25422;48.286;8.484;2023-05-10T00:12:35;1.00;;;0.90;;
39738;SDS011;25422;48.286;8.484;2023-05-10T00:15:01;4.53;;;2.47;;
39738;SDS011;25422;48.286;8.484;2023-05-10T00:17:28;1.00;;;1.00;;
39738;SDS011;25422;48.286;8.484;2023-05-10T00:19:53;1.02;;;0.93;;
39738;SDS011;25422;48.286;8.484;2023-05-10T00:22:19;1.15;;;1.00;;
39738;SDS011;25422;48.286;8.484;2023-05-10T00:24:45;0.80;;;0.80;;
39738;SDS011;25422;48.286;8.484;2023-05-10T00:27:10;1.05;;;0.95;;
39738;SDS011;25422;48.286;8.484;2023-05-10T00:29:36;2.17;;;1.02;;
39738;SDS011;25422;48.286;8.484;2023-05-10T00:32:01;1.90;;;1.30;;
39738;SDS011;25422;48.286;8.484;2023-05-10T00:34:27;1.13;;;1.10;;
39738;SDS011;25422;48.286;8.484;2023-05-10T00:36:52;2.97;;;1.60;;
39738;SDS011;25422;48.286;8.484;2023-05-10T00:39:17;1.35;;;1.25;;
39738;SDS011;25422;48.286;8.484;2023-05-10T00:41:43;1.08;;;1.08;;
39738;SDS011;25422;48.286;8.484;2023-05-10T00:44:08;1.30;;;1.20;;
39738;SDS011;25422;48.286;8.484;2023-05-10T00:46:34;1.10;;;0.90;;
39738;SDS011;25422;48.286;8.484;2023-05-10T00:48:59;3.83;;;1.20;;
39738;SDS011;25422;48.286;8.484;2023-05-10T00:51:25;1.80;;;1.13;;
39738;SDS011;25422;48.286;8.484;2023-05-10T00:53:51;1.58;;;1.00;;
39738;SDS011;25422;48.286;8.484;2023-05-10T00:56:16;0.90;;;0.90;;
39738;SDS011;25422;48.286;8.484;2023-05-10T00:58:48;1.13;;;1.10;;
39738;SDS011;25422;48.286;8.484;2023-05-10T01:01:13;1.00;;;1.00;;
39738;SDS011;25422;48.286;8.484;2023-05-10T01:03:39;2.45;;;1.20;;
39738;SDS011;25422;48.286;8.484;2023-05-10T01:06:05;1.80;;;1.10;;
39738;SDS011;25422;48.286;8.484;2023-05-10T01:08:31;1.48;;;1.10;;
39738;SDS011;25422;48.286;8.484;2023-05-10T01:10:56;1.52;;;1.20;;
39738;SDS011;25422;48.286;8.484;2023-05-10T01:13:30;1.77;;;1.17;;
39738;SDS011;25422;48.286;8.484;2023-05-10T01:16:01;0.90;;;0.90;;
39738;SDS011;25422;48.286;8.484;2023-05-10T01:18:33;2.47;;;1.10;;
39738;SDS011;25422;48.286;8.484;2023-05-10T01:23:45;1.23;;;1.13;;
39738;SDS011;25422;48.286;8.484;2023-05-10T01:26:28;2.83;;;1.10;;
39738;SDS011;25422;48.286;8.484;2023-05-10T01:29:11;1.20;;;1.10;;
39738;SDS011;25422;48.286;8.484;2023-05-10T01:34:54;1.63;;;1.38;;
39738;SDS011;25422;48.286;8.484;2023-05-10T01:37:25;1.00;;;1.00;;
39738;SDS011;25422;48.286;8.484;2023-05-10T01:40:00;1.13;;;1.13;;
39738;SDS011;25422;48.286;8.484;2023-05-10T01:42:36;1.25;;;1.15;;
39738;SDS011;25422;48.286;8.484;2023-05-10T01:45:14;2.00;;;1.20;;
39738;SDS011;25422;48.286;8.484;2023-05-10T01:47:50;2.75;;;1.40;;
39738;SDS011;25422;48.286;8.484;2023-05-10T01:50:22;1.27;;;1.08;;
39738;SDS011;25422;48.286;8.484;2023-05-10T01:52:54;1.17;;;1.08;;
39738;SDS011;25422;48.286;8.484;2023-05-10T01:55:21;1.60;;;1.40;;
39738;SDS011;25422;48.286;8.484;2023-05-10T01:57:51;5.90;;;1.30;;
39738;SDS011;25422;48.286;8.484;2023-05-10T02:00:23;1.33;;;1.20;;
39738;SDS011;25422;48.286;8.484;2023-05-10T02:02:50;1.52;;;1.30;;
39738;SDS011;25422;48.286;8.484;2023-05-10T02:05:17;4.75;;;1.40;;
39738;SDS011;25422;48.286;8.484;2023-05-10T02:07:46;2.05;;;1.40;;
39738;SDS011;25422;48.286;8.484;2023-05-10T02:10:12;3.05;;;1.42;;
39738;SDS011;25422;48.286;8.484;2023-05-10T02:12:40;1.90;;;1.70;;
39738;SDS011;25422;48.286;8.484;2023-05-10T02:15:08;1.80;;;1.27;;
39738;SDS011;25422;48.286;8.484;2023-05-10T02:17:37;1.40;;;1.30;;
39738;SDS011;25422;48.286;8.484;2023-05-10T02:20:04;2.38;;;1.20;;
39738;SDS011;25422;48.286;8.484;2023-05-10T02:22:32;1.40;;;1.30;;
39738;SDS011;25422;48.286;8.484;2023-05-10T02:24:58;1.67;;;1.40;;
39738;SDS011;25422;48.286;8.484;2023-05-10T02:27:27;1.17;;;1.08;;
39738;SDS011;25422;48.286;8.484;2023-05-10T02:29:53;2.25;;;1.20;;
39738;SDS011;25422;48.286;8.484;2023-05-10T02:32:21;1.30;;;1.20;;
39738;SDS011;25422;48.286;8.484;2023-05-10T02:34:49;1.58;;;1.10;;
39738;SDS011;25422;48.286;8.484;2023-05-10T02:37:17;1.42;;;1.08;;
39738;SDS011;25422;48.286;8.484;2023-05-10T02:39:46;1.20;;;1.05;;
39738;SDS011;25422;48.286;8.484;2023-05-10T02:42:13;1.67;;;1.05;;
39738;SDS011;25422;48.286;8.484;2023-05-10T02:44:42;4.22;;;1.05;;
39738;SDS011;25422;48.286;8.484;2023-05-10T02:47:10;1.30;;;1.20;;
39738;SDS011;25422;48.286;8.484;2023-05-10T02:49:36;1.20;;;1.10;;
39738;SDS011;25422;48.286;8.484;2023-05-10T02:52:01;1.35;;;1.23;;
39738;SDS011;25422;48.286;8.484;2023-05-10T02:54:33;1.48;;;1.20;;
39738;SDS011;25422;48.286;8.484;2023-05-10T02:57:06;1.20;;;1.10;;
39738;SDS011;25422;48.286;8.484;2023-05-10T02:59:34;1.48;;;1.17;;
39738;SDS011;25422;48.286;8.484;2023-05-10T03:02:00;1.27;;;1.17;;
39738;SDS011;25422;48.286;8.484;2023-05-10T03:04:27;1.38;;;1.00;;
39738;SDS011;25422;48.286;8.484;2023-05-10T03:06:55;1.85;;;1.25;;
39738;SDS011;25422;48.286;8.484;2023-05-10T03:09:20;1.15;;;1.05;;
39738;SDS011;25422;48.286;8.484;2023-05-10T03:14:53;1.40;;;1.30;;
39738;SDS011;25422;48.286;8.484;2023-05-10T03:17:30;1.38;;;1.27;;
39738;SDS011;25422;48.286;8.484;2023-05-10T03:20:03;1.27;;;1.17;;
39738;SDS011;25422;48.286;8.484;2023-05-10T03:22:55;1.45;;;1.35;;
39738;SDS011;25422;48.286;8.484;2023-05-10T03:25:25;5.80;;;3.22;;
39738;SDS011;25422;48.286;8.484;2023-05-10T03:27:52;15.80;;;12.20;;
39738;SDS011;25422;48.286;8.484;2023-05-10T03:30:18;16.88;;;9.90;;
39738;SDS011;25422;48.286;8.484;2023-05-10T03:32:45;13.40;;;7.30;;
39738;SDS011;25422;48.286;8.484;2023-05-10T03:35:12;55.50;;;36.85;;
39738;SDS011;25422;48.286;8.484;2023-05-10T03:37:38;33.97;;;23.75;;
39738;SDS011;25422;48.286;8.484;2023-05-10T03:40:04;17.17;;;14.80;;
39738;SDS011;25422;48.286;8.484;2023-05-10T03:42:35;5.32;;;4.78;;
39738;SDS011;25422;48.286;8.484;2023-05-10T03:45:00;4.32;;;3.70;;
39738;SDS011;25422;48.286;8.484;2023-05-10T03:47:26;4.30;;;2.92;;
39738;SDS011;25422;48.286;8.484;2023-05-10T03:49:51;2.35;;;2.03;;
39738;SDS011;25422;48.286;8.484;2023-05-10T03:52:17;2.45;;;2.25;;
39738;SDS011;25422;48.286;8.484;2023-05-10T03:54:43;5.50;;;2.65;;
39738;SDS011;25422;48.286;8.484;2023-05-10T03:57:09;2.25;;;2.05;;
39738;SDS011;25422;48.286;8.484;2023-05-10T03:59:35;2.33;;;2.13;;
39738;SDS011;25422;48.286;8.484;2023-05-10T04:02:00;2.58;;;2.10;;
39738;SDS011;25422;48.286;8.484;2023-05-10T04:04:25;1.90;;;1.75;;
39738;SDS011;25422;48.286;8.484;2023-05-10T04:06:51;2.38;;;1.95;;
39738;SDS011;25422;48.286;8.484;2023-05-10T04:09:16;3.72;;;2.28;;
39738;SDS011;25422;48.286;8.484;2023-05-10T04:11:42;2.03;;;1.88;;
39738;SDS011;25422;48.286;8.484;2023-05-10T04:14:08;2.78;;;2.03;;
39738;SDS011;25422;48.286;8.484;2023-05-10T04:16:33;4.40;;;2.17;;
39738;SDS011;25422;48.286;8.484;2023-05-10T04:18:59;2.30;;;2.00;;
39738;SDS011;25422;48.286;8.484;2023-05-10T04:21:25;4.30;;;1.90;;
39738;SDS011;25422;48.286;8.484;2023-05-10T04:23:50;5.30;;;2.10;;
39738;SDS011;25422;48.286;8.484;2023-05-10T04:26:15;4.45;;;1.85;;
39738;SDS011;25422;48.286;8.484;2023-05-10T04:28:41;1.85;;;1.75;;
39738;SDS011;25422;48.286;8.484;2023-05-10T04:31:07;1.60;;;1.50;;
39738;SDS011;25422;48.286;8.484;2023-05-10T04:33:34;1.77;;;1.67;;
39738;SDS011;25422;48.286;8.484;2023-05-10T04:36:00;1.55;;;1.45;;
39738;SDS011;25422;48.286;8.484;2023-05-10T04:38:26;1.27;;;1.20;;
39738;SDS011;25422;48.286;8.484;2023-05-10T04:40:52;1.40;;;1.30;;
39738;SDS011;25422;48.286;8.484;2023-05-10T04:43:17;1.10;;;1.02;;
39738;SDS011;25422;48.286;8.484;2023-05-10T04:45:43;2.58;;;1.17;;
39738;SDS011;25422;48.286;8.484;2023-05-10T04:48:08;1.27;;;1.17;;
39738;SDS011;25422;48.286;8.484;2023-05-10T04:50:34;1.20;;;1.10;;
39738;SDS011;25422;48.286;8.484;2023-05-10T04:52:59;1.40;;;1.05;;
39738;SDS011;25422;48.286;8.484;2023-05-10T04:55:24;1.73;;;1.10;;
39738;SDS011;25422;48.286;8.484;2023-05-10T04:57:51;3.40;;;1.63;;
39738;SDS011;25422;48.286;8.484;2023-05-10T05:00:16;2.97;;;2.13;;
39738;SDS011;25422;48.286;8.484;2023-05-10T05:02:45;2.65;;;1.25;;
39738;SDS011;25422;48.286;8.484;2023-05-10T05:05:11;3.05;;;2.00;;
39738;SDS011;25422;48.286;8.484;2023-05-10T05:07:37;2.58;;;1.70;;
39738;SDS011;25422;48.286;8.484;2023-05-10T05:10:04;1.65;;;1.55;;
39738;SDS011;25422;48.286;8.484;2023-05-10T05:12:33;1.90;;;1.70;;
39738;SDS011;25422;48.286;8.484;2023-05-10T05:14:59;2.78;;;1.60;;
39738;SDS011;25422;48.286;8.484;2023-05-10T05:17:24;1.80;;;1.70;;
39738;SDS011;25422;48.286;8.484;2023-05-10T05:19:50;4.47;;;1.67;;
39738;SDS011;25422;48.286;8.484;2023-05-10T05:22:15;3.05;;;1.73;;
39738;SDS011;25422;48.286;8.484;2023-05-10T05:24:41;2.60;;;2.03;;
39738;SDS011;25422;48.286;8.484;2023-05-10T05:27:06;3.20;;;1.80;;
39738;SDS011;25422;48.286;8.484;2023-05-10T05:29:32;3.03;;;1.85;;
39738;SDS011;25422;48.286;8.484;2023-05-10T05:31:57;2.05;;;1.63;;
39738;SDS011;25422;48.286;8.484;2023-05-10T05:34:22;2.85;;;1.80;;
39738;SDS011;25422;48.286;8.484;2023-05-10T05:36:49;4.13;;;1.90;;
39738;SDS011;25422;48.286;8.484;2023-05-10T05:39:14;1.92;;;1.60;;
39738;SDS011;25422;48.286;8.484;2023-05-10T05:41:40;2.47;;;1.60;;
39738;SDS011;25422;48.286;8.484;2023-05-10T05:44:05;3.83;;;1.60;;
39738;SDS011;25422;48.286;8.484;2023-05-10T05:46:30;2.75;;;1.70;;
39738;SDS011;25422;48.286;8.484;2023-05-10T05:48:56;4.80;;;3.00;;
39738;SDS011;25422;48.286;8.484;2023-05-10T05:51:21;2.97;;;1.75;;
39738;SDS011;25422;48.286;8.484;2023-05-10T05:53:47;5.22;;;1.70;;
39738;SDS011;25422;48.286;8.484;2023-05-10T05:56:12;2.03;;;1.30;;
39738;SDS011;25422;48.286;8.484;2023-05-10T05:58:37;1.98;;;1.50;;
39738;SDS011;25422;48.286;8.484;2023-05-10T06:01:03;1.45;;;1.30;;
39738;SDS011;25422;48.286;8.484;2023-05-10T06:03:28;1.35;;;1.20;;
39738;SDS011;25422;48.286;8.484;2023-05-10T06:05:54;2.47;;;1.40;;
39738;SDS011;25422;48.286;8.484;2023-05-10T06:08:19;2.10;;;1.40;;
39738;SDS011;25422;48.286;8.484;2023-05-10T06:10:45;1.30;;;1.20;;
39738;SDS011;25422;48.286;8.484;2023-05-10T06:13:10;5.75;;;1.35;;
39738;SDS011;25422;48.286;8.484;2023-05-10T06:15:36;2.80;;;1.30;;
39738;SDS011;25422;48.286;8.484;2023-05-10T06:18:01;2.53;;;1.30;;
39738;SDS011;25422;48.286;8.484;2023-05-10T06:20:27;1.20;;;1.10;;
39738;SDS011;25422;48.286;8.484;2023-05-10T06:22:52;3.10;;;1.40;;
39738;SDS011;25422;48.286;8.484;2023-05-10T06:25:18;1.40;;;1.17;;
39738;SDS011;25422;48.286;8.484;2023-05-10T06:27:43;4.85;;;1.15;;
39738;SDS011;25422;48.286;8.484;2023-05-10T06:30:09;1.83;;;1.17;;
39738;SDS011;25422;48.286;8.484;2023-05-10T06:32:35;2.15;;;1.10;;
39738;SDS011;25422;48.286;8.484;2023-05-10T06:35:01;2.13;;;1.20;;
39738;SDS011;25422;48.286;8.484;2023-05-10T06:37:26;2.65;;;1.20;;
39738;SDS011;25422;48.286;8.484;2023-05-10T06:39:51;1.67;;;1.20;;
39738;SDS011;25422;48.286;8.484;2023-05-10T06:42:17;2.13;;;1.13;;
39738;SDS011;25422;48.286;8.484;2023-05-10T06:44:45;2.55;;;1.40;;
39738;SDS011;25422;48.286;8.484;2023-05-10T06:47:10;4.25;;;1.00;;
39738;SDS011;25422;48.286;8.484;2023-05-10T06:49:36;3.97;;;1.10;;
39738;SDS011;25422;48.286;8.484;2023-05-10T06:52:02;1.00;;;0.90;;
39738;SDS011;25422;48.286;8.484;2023-05-10T06:54:27;1.10;;;1.00;;
39738;SDS011;25422;48.286;8.484;2023-05-10T06:56:52;1.50;;;1.00;;
39738;SDS011;25422;48.286;8.484;2023-05-10T06:59:18;0.88;;;0.88;;
39738;SDS011;25422;48.286;8.484;2023-05-10T07:01:44;3.30;;;1.30;;
39738;SDS011;25422;48.286;8.484;2023-05-10T07:04:09;1.88;;;1.20;;
39738;SDS011;25422;48.286;8.484;2023-05-10T07:06:35;1.92;;;1.13;;
39738;SDS011;25422;48.286;8.484;2023-05-10T07:09:01;1.98;;;1.35;;
39738;SDS011;25422;48.286;8.484;2023-05-10T07:11:26;5.18;;;1.30;;
39738;SDS011;25422;48.286;8.484;2023-05-10T07:13:52;2.30;;;1.23;;
39738;SDS011;25422;48.286;8.484;2023-05-10T07:16:17;4.20;;;1.20;;
39738;SDS011;25422;48.286;8.484;2023-05-10T07:18:43;2.38;;;1.20;;
39738;SDS011;25422;48.286;8.484;2023-05-10T07:21:08;2.55;;;1.23;;
39738;SDS011;25422;48.286;8.484;2023-05-10T07:23:34;0.90;;;0.90;;
39738;SDS011;25422;48.286;8.484;2023-05-10T07:25:59;1.92;;;1.20;;
39738;SDS011;25422;48.286;8.484;2023-05-10T07:28:25;1.38;;;1.00;;
39738;SDS011;25422;48.286;8.484;2023-05-10T07:30:50;1.10;;;1.00;;
39738;SDS011;25422;48.286;8.484;2023-05-10T07:33:16;0.90;;;0.90;;
39738;SDS011;25422;48.286;8.484;2023-05-10T07:35:42;3.05;;;1.27;;
39738;SDS011;25422;48.286;8.484;2023-05-10T07:38:08;1.10;;;1.00;;
39738;SDS011;25422;48.286;8.484;2023-05-10T07:40:33;8.30;;;1.00;;
39738;SDS011;25422;48.286;8.484;2023-05-10T07:42:59;2.58;;;1.17;;
39738;SDS011;25422;48.286;8.484;2023-05-10T07:45:28;1.37;;;1.00;;
39738;SDS011;25422;48.286;8.484;2023-05-10T07:47:53;2.35;;;0.95;;
39738;SDS011;25422;48.286;8.484;2023-05-10T07:50:19;1.20;;;1.10;;
39738;SDS011;25422;48.286;8.484;2023-05-10T07:52:46;1.65;;;1.00;;
39738;SDS011;25422;48.286;8.484;2023-05-10T07:55:11;1.58;;;0.90;;
39738;SDS011;25422;48.286;8.484;2023-05-10T07:57:37;1.13;;;0.90;;
39738;SDS011;25422;48.286;8.484;2023-05-10T08:00:02;2.00;;;1.05;;
39738;SDS011;25422;48.286;8.484;2023-05-10T08:02:38;1.30;;;1.00;;
39738;SDS011;25422;48.286;8.484;2023-05-10T08:05:04;1.63;;;1.00;;
39738;SDS011;25422;48.286;8.484;2023-05-10T08:07:30;1.48;;;1.17;;
39738;SDS011;25422;48.286;8.484;2023-05-10T08:09:55;1.85;;;1.00;;
39738;SDS011;25422;48.286;8.484;2023-05-10T08:12:21;1.25;;;1.05;;
39738;SDS011;25422;48.286;8.484;2023-05-10T08:14:46;1.25;;;1.02;;
39738;SDS011;25422;48.286;8.484;2023-05-10T08:17:12;4.82;;;1.02;;
39738;SDS011;25422;48.286;8.484;2023-05-10T08:19:37;0.98;;;0.80;;
39738;SDS011;25422;48.286;8.484;2023-05-10T08:22:02;1.15;;;0.90;;
39738;SDS011;25422;48.286;8.484;2023-05-10T08:24:28;2.95;;;1.10;;
39738;SDS011;25422;48.286;8.484;2023-05-10T08:26:53;2.45;;;0.93;;
39738;SDS011;25422;48.286;8.484;2023-05-10T08:29:19;2.97;;;1.10;;
39738;SDS011;25422;48.286;8.484;2023-05-10T08:31:44;0.80;;;0.70;;
39738;SDS011;25422;48.286;8.484;2023-05-10T08:34:10;0.90;;;0.90;;
39738;SDS011;25422;48.286;8.484;2023-05-10T08:36:35;1.02;;;0.93;;
39738;SDS011;25422;48.286;8.484;2023-05-10T08:39:01;0.80;;;0.60;;
39738;SDS011;25422;48.286;8.484;2023-05-10T08:41:26;3.17;;;0.73;;
39738;SDS011;25422;48.286;8.484;2023-05-10T08:43:52;2.85;;;0.90;;
39738;SDS011;25422;48.286;8.484;2023-05-10T08:46:19;2.92;;;1.00;;
39738;SDS011;25422;48.286;8.484;2023-05-10T08:48:46;1.20;;;0.90;;
39738;SDS011;25422;48.286;8.484;2023-05-10T08:51:17;1.25;;;0.80;;
39738;SDS011;25422;48.286;8.484;2023-05-10T08:53:45;2.17;;;0.82;;
39738;SDS011;25422;48.286;8.484;2023-05-10T08:56:10;4.22;;;0.77;;
39738;SDS011;25422;48.286;8.484;2023-05-10T08:58:36;3.55;;;0.90;;
39738;SDS011;25422;48.286;8.484;2023-05-10T09:01:02;0.57;;;0.57;;
39738;SDS011;25422;48.286;8.484;2023-05-10T09:03:30;2.22;;;0.80;;
39738;SDS011;25422;48.286;8.484;2023-05-10T09:05:56;1.35;;;0.77;;
39738;SDS011;25422;48.286;8.484;2023-05-10T09:08:22;2.35;;;1.00;;
39738;SDS011;25422;48.286;8.484;2023-05-10T09:10:50;1.48;;;0.90;;
39738;SDS011;25422;48.286;8.484;2023-05-10T09:13:17;0.70;;;0.70;;
39738;SDS011;25422;48.286;8.484;2023-05-10T09:15:44;0.95;;;0.88;;
39738;SDS011;25422;48.286;8.484;2023-05-10T09:18:10;1.48;;;0.80;;
39738;SDS011;25422;48.286;8.484;2023-05-10T09:20:36;0.70;;;0.70;;
39738;SDS011;25422;48.286;8.484;2023-05-10T09:23:01;1.05;;;0.70;;
39738;SDS011;25422;48.286;8.484;2023-05-10T09:25:27;3.70;;;0.70;;
39738;SDS011;25422;48.286;8.484;2023-05-10T09:27:52;1.90;;;0.90;;
39738;SDS011;25422;48.286;8.484;2023-05-10T09:30:25;0.73;;;0.70;;
39738;SDS011;25422;48.286;8.484;2023-05-10T09:32:52;2.60;;;0.80;;
39738;SDS011;25422;48.286;8.484;2023-05-10T09:35:20;2.95;;;0.98;;
39738;SDS011;25422;48.286;8.484;2023-05-10T09:37:47;2.03;;;0.70;;
39738;SDS011;25422;48.286;8.484;2023-05-10T09:40:18;1.52;;;0.60;;
39738;SDS011;25422;48.286;8.484;2023-05-10T09:42:54;1.75;;;0.80;;
39738;SDS011;25422;48.286;8.484;2023-05-10T09:45:20;1.48;;;0.80;;
39738;SDS011;25422;48.286;8.484;2023-05-10T09:47:47;1.15;;;0.68;;
39738;SDS011;25422;48.286;8.484;2023-05-10T09:50:12;3.15;;;0.70;;
39738;SDS011;25422;48.286;8.484;2023-05-10T09:52:51;1.85;;;1.10;;
39738;SDS011;25422;48.286;8.484;2023-05-10T09:55:22;1.50;;;0.80;;
39738;SDS011;25422;48.286;8.484;2023-05-10T09:57:49;1.75;;;0.77;;
39738;SDS011;25422;48.286;8.484;2023-05-10T10:00:27;3.03;;;0.75;;
39738;SDS011;25422;48.286;8.484;2023-05-10T10:02:56;4.90;;;0.90;;
39738;SDS011;25422;48.286;8.484;2023-05-10T10:05:33;1.45;;;0.80;;
39738;SDS011;25422;48.286;8.484;2023-05-10T10:08:00;1.55;;;0.70;;
39738;SDS011;25422;48.286;8.484;2023-05-10T10:10:28;3.95;;;0.85;;
39738;SDS011;25422;48.286;8.484;2023-05-10T10:12:54;2.13;;;0.70;;
39738;SDS011;25422;48.286;8.484;2023-05-10T10:15:20;2.28;;;1.00;;
39738;SDS011;25422;48.286;8.484;2023-05-10T10:17:48;1.70;;;0.80;;
39738;SDS011;25422;48.286;8.484;2023-05-10T10:20:14;2.97;;;1.33;;
39738;SDS011;25422;48.286;8.484;2023-05-10T10:22:40;4.57;;;1.30;;
39738;SDS011;25422;48.286;8.484;2023-05-10T10:25:06;2.92;;;1.38;;
39738;SDS011;25422;48.286;8.484;2023-05-10T10:32:48;4.40;;;1.45;;
39738;SDS011;25422;48.286;8.484;2023-05-10T10:35:32;3.30;;;1.30;;
39738;SDS011;25422;48.286;8.484;2023-05-10T10:37:59;2.65;;;1.23;;
39738;SDS011;25422;48.286;8.484;2023-05-10T10:42:51;4.25;;;1.48;;
39738;SDS011;25422;48.286;8.484;2023-05-10T10:45:17;4.65;;;1.30;;
39738;SDS011;25422;48.286;8.484;2023-05-10T10:47:42;3.63;;;1.40;;
39738;SDS011;25422;48.286;8.484;2023-05-10T10:50:10;5.15;;;1.23;;
39738;SDS011;25422;48.286;8.484;2023-05-10T10:52:40;2.45;;;1.13;;
39738;SDS011;25422;48.286;8.484;2023-05-10T10:55:10;3.20;;;1.43;;
39738;SDS011;25422;48.286;8.484;2023-05-10T11:02:59;2.15;;;1.08;;
39738;SDS011;25422;48.286;8.484;2023-05-10T11:13:44;3.45;;;1.02;;
39738;SDS011;25422;48.286;8.484;2023-05-10T11:16:11;2.40;;;0.77;;
39738;SDS011;25422;48.286;8.484;2023-05-10T11:18:39;3.20;;;1.10;;
39738;SDS011;25422;48.286;8.484;2023-05-10T11:21:05;2.75;;;1.00;;
39738;SDS011;25422;48.286;8.484;2023-05-10T11:26:07;2.17;;;0.90;;
39738;SDS011;25422;48.286;8.484;2023-05-10T11:28:34;2.33;;;0.95;;
39738;SDS011;25422;48.286;8.484;2023-05-10T11:31:07;2.58;;;1.00;;
39738;SDS011;25422;48.286;8.484;2023-05-10T11:33:42;2.55;;;0.90;;
39738;SDS011;25422;48.286;8.484;2023-05-10T11:36:14;1.90;;;0.80;;
39738;SDS011;25422;48.286;8.484;2023-05-10T11:38:40;4.07;;;0.98;;
39738;SDS011;25422;48.286;8.484;2023-05-10T11:41:07;2.45;;;0.88;;
39738;SDS011;25422;48.286;8.484;2023-05-10T11:43:38;2.75;;;0.98;;
39738;SDS011;25422;48.286;8.484;2023-05-10T11:46:13;4.53;;;0.85;;
39738;SDS011;25422;48.286;8.484;2023-05-10T11:48:39;1.75;;;0.73;;
39738;SDS011;25422;48.286;8.484;2023-05-10T11:51:08;4.55;;;1.05;;
39738;SDS011;25422;48.286;8.484;2023-05-10T11:53:35;1.88;;;0.80;;
39738;SDS011;25422;48.286;8.484;2023-05-10T11:56:07;5.25;;;1.20;;
39738;SDS011;25422;48.286;8.484;2023-05-10T11:58:34;2.45;;;0.90;;
39738;SDS011;25422;48.286;8.484;2023-05-10T12:01:00;2.42;;;0.73;;
39738;SDS011;25422;48.286;8.484;2023-05-10T12:03:29;1.95;;;0.88;;
39738;SDS011;25422;48.286;8.484;2023-05-10T12:05:55;1.63;;;0.88;;
39738;SDS011;25422;48.286;8.484;2023-05-10T12:08:22;1.63;;;0.80;;
39738;SDS011;25422;48.286;8.484;2023-05-10T12:10:50;5.30;;;0.80;;
39738;SDS011;25422;48.286;8.484;2023-05-10T12:13:16;2.55;;;0.95;;
39738;SDS011;25422;48.286;8.484;2023-05-10T12:15:42;2.90;;;1.02;;
39738;SDS011;25422;48.286;8.484;2023-05-10T12:18:11;3.33;;;1.17;;
39738;SDS011;25422;48.286;8.484;2023-05-10T12:20:38;1.50;;;0.80;;
39738;SDS011;25422;48.286;8.484;2023-05-10T12:23:04;1.67;;;0.90;;
39738;SDS011;25422;48.286;8.484;2023-05-10T12:25:34;7.32;;;1.00;;
39738;SDS011;25422;48.286;8.484;2023-05-10T12:28:03;2.03;;;0.95;;
39738;SDS011;25422;48.286;8.484;2023-05-10T12:30:30;4.88;;;1.23;;
39738;SDS011;25422;48.286;8.484;2023-05-10T12:35:32;3.78;;;0.70;;
39738;SDS011;25422;48.286;8.484;2023-05-10T12:37:59;2.45;;;0.88;;
39738;SDS011;25422;48.286;8.484;2023-05-10T12:40:24;1.25;;;0.70;;
39738;SDS011;25422;48.286;8.484;2023-05-10T12:42:50;1.88;;;0.80;;
39738;SDS011;25422;48.286;8.484;2023-05-10T12:45:16;2.53;;;0.75;;
39738;SDS011;25422;48.286;8.484;2023-05-10T12:47:43;0.77;;;0.60;;
39738;SDS011;25422;48.286;8.484;2023-05-10T12:50:08;2.60;;;0.85;;
39738;SDS011;25422;48.286;8.484;2023-05-10T12:52:34;2.08;;;1.10;;
39738;SDS011;25422;48.286;8.484;2023-05-10T12:55:00;1.80;;;0.80;;
39738;SDS011;25422;48.286;8.484;2023-05-10T12:57:26;2.45;;;1.00;;
39738;SDS011;25422;48.286;8.484;2023-05-10T12:59:52;2.35;;;0.93;;
39738;SDS011;25422;48.286;8.484;2023-05-10T13:02:18;3.33;;;0.90;;
39738;SDS011;25422;48.286;8.484;2023-05-10T13:04:45;2.03;;;1.30;;
39738;SDS011;25422;48.286;8.484;2023-05-10T13:07:11;4.47;;;1.10;;
39738;SDS011;25422;48.286;8.484;2023-05-10T13:09:37;1.65;;;0.80;;
39738;SDS011;25422;48.286;8.484;2023-05-10T13:12:02;3.22;;;0.90;;
39738;SDS011;25422;48.286;8.484;2023-05-10T13:14:28;1.92;;;0.80;;
39738;SDS011;25422;48.286;8.484;2023-05-10T13:16:54;7.43;;;1.10;;
39738;SDS011;25422;48.286;8.484;2023-05-10T13:19:20;1.65;;;0.70;;
39738;SDS011;25422;48.286;8.484;2023-05-10T13:21:45;2.08;;;0.70;;
39738;SDS011;25422;48.286;8.484;2023-05-10T13:24:11;1.60;;;0.80;;
39738;SDS011;25422;48.286;8.484;2023-05-10T13:26:39;2.13;;;1.00;;
39738;SDS011;25422;48.286;8.484;2023-05-10T13:29:06;1.65;;;0.57;;
39738;SDS011;25422;48.286;8.484;2023-05-10T13:31:32;4.10;;;0.98;;
39738;SDS011;25422;48.286;8.484;2023-05-10T13:33:58;1.65;;;0.80;;
39738;SDS011;25422;48.286;8.484;2023-05-10T13:36:26;2.78;;;1.00;;
39738;SDS011;25422;48.286;8.484;2023-05-10T13:38:52;2.17;;;0.70;;
39738;SDS011;25422;48.286;8.484;2023-05-10T13:41:18;3.13;;;0.90;;
39738;SDS011;25422;48.286;8.484;2023-05-10T13:43:46;2.53;;;0.90;;
39738;SDS011;25422;48.286;8.484;2023-05-10T13:46:14;6.53;;;3.30;;
39738;SDS011;25422;48.286;8.484;2023-05-10T13:48:43;5.55;;;1.60;;
39738;SDS011;25422;48.286;8.484;2023-05-10T13:51:12;3.35;;;1.20;;
39738;SDS011;25422;48.286;8.484;2023-05-10T13:53:40;3.03;;;0.90;;
39738;SDS011;25422;48.286;8.484;2023-05-10T13:56:08;3.10;;;1.23;;
39738;SDS011;25422;48.286;8.484;2023-05-10T13:58:33;3.60;;;1.13;;
39738;SDS011;25422;48.286;8.484;2023-05-10T14:01:02;3.33;;;1.00;;
39738;SDS011;25422;48.286;8.484;2023-05-10T14:03:29;2.42;;;1.00;;
39738;SDS011;25422;48.286;8.484;2023-05-10T14:05:54;2.05;;;0.80;;
39738;SDS011;25422;48.286;8.484;2023-05-10T14:08:24;5.38;;;1.00;;
39738;SDS011;25422;48.286;8.484;2023-05-10T14:10:52;1.38;;;1.00;;
39738;SDS011;25422;48.286;8.484;2023-05-10T14:13:23;2.60;;;0.65;;
39738;SDS011;25422;48.286;8.484;2023-05-10T14:15:49;2.55;;;0.70;;
39738;SDS011;25422;48.286;8.484;2023-05-10T14:18:15;1.83;;;0.70;;
39738;SDS011;25422;48.286;8.484;2023-05-10T14:20:41;2.70;;;0.63;;
39738;SDS011;25422;48.286;8.484;2023-05-10T14:23:07;1.85;;;0.73;;
39738;SDS011;25422;48.286;8.484;2023-05-10T14:25:32;2.03;;;0.85;;
39738;SDS011;25422;48.286;8.484;2023-05-10T14:27:58;2.10;;;0.80;;
39738;SDS011;25422;48.286;8.484;2023-05-10T14:30:23;1.23;;;0.70;;
39738;SDS011;25422;48.286;8.484;2023-05-10T14:32:49;4.32;;;0.80;;
39738;SDS011;25422;48.286;8.484;2023-05-10T14:35:14;2.72;;;0.68;;
39738;SDS011;25422;48.286;8.484;2023-05-10T14:37:40;1.70;;;0.77;;
39738;SDS011;25422;48.286;8.484;2023-05-10T14:40:06;1.83;;;0.70;;
39738;SDS011;25422;48.286;8.484;2023-05-10T14:42:32;1.73;;;1.02;;
39738;SDS011;25422;48.286;8.484;2023-05-10T14:44:58;2.78;;;1.13;;
39738;SDS011;25422;48.286;8.484;2023-05-10T14:47:25;1.35;;;0.88;;
39738;SDS011;25422;48.286;8.484;2023-05-10T14:49:51;5.53;;;2.10;;
39738;SDS011;25422;48.286;8.484;2023-05-10T14:52:18;2.97;;;1.25;;
39738;SDS011;25422;48.286;8.484;2023-05-10T14:54:44;2.95;;;1.00;;
39738;SDS011;25422;48.286;8.484;2023-05-10T14:57:10;2.25;;;1.27;;
39738;SDS011;25422;48.286;8.484;2023-05-10T14:59:38;3.42;;;1.00;;
39738;SDS011;25422;48.286;8.484;2023-05-10T15:02:04;1.77;;;1.10;;
39738;SDS011;25422;48.286;8.484;2023-05-10T15:04:31;1.40;;;0.63;;
39738;SDS011;25422;48.286;8.484;2023-05-10T15:06:58;0.80;;;0.60;;
39738;SDS011;25422;48.286;8.484;2023-05-10T15:09:24;3.85;;;0.65;;
39738;SDS011;25422;48.286;8.484;2023-05-10T15:11:51;3.95;;;0.80;;
39738;SDS011;25422;48.286;8.484;2023-05-10T15:14:16;2.08;;;0.75;;
39738;SDS011;25422;48.286;8.484;2023-05-10T15:16:41;1.95;;;0.60;;
39738;SDS011;25422;48.286;8.484;2023-05-10T15:19:07;1.65;;;0.70;;
39738;SDS011;25422;48.286;8.484;2023-05-10T15:21:32;1.90;;;0.80;;